createdAt,value
2017-12-20T00:00:04.500Z,36.25
2017-12-20T00:01:06.977Z,37.92
2017-12-20T00:02:09.665Z,36.42
2017-12-20T00:03:12.210Z,36.38
2017-12-20T00:04:14.692Z,35.58
2017-12-20T00:05:18.360Z,36.45
2017-12-20T00:06:20.986Z,34.33
2017-12-20T00:07:23.483Z,34.40
2017-12-20T00:08:25.989Z,34.67
2017-12-20T00:09:28.481Z,35.47
2017-12-20T00:10:30.944Z,33.85
2017-12-20T00:11:33.429Z,34.78
2017-12-20T00:12:35.911Z,33.20
2017-12-20T00:13:38.418Z,32.53
2017-12-20T00:14:40.907Z,32.38
2017-12-20T00:15:43.384Z,31.77
2017-12-20T00:16:45.867Z,31.85
2017-12-20T00:17:48.353Z,31.40
2017-12-20T00:18:50.851Z,29.73
2017-12-20T00:19:53.314Z,30.52
2017-12-20T00:20:55.779Z,29.52
2017-12-20T00:21:58.243Z,29.80
2017-12-20T00:23:00.783Z,32.35
2017-12-20T00:24:03.315Z,33.63
2017-12-20T00:25:05.784Z,31.10
2017-12-20T00:26:08.276Z,32.38
2017-12-20T00:27:10.766Z,30.85
2017-12-20T00:28:13.478Z,34.13
2017-12-20T00:29:15.973Z,31.50
2017-12-20T00:30:18.457Z,31.90
2017-12-20T00:31:20.917Z,30.83
2017-12-20T00:32:23.396Z,31.35
2017-12-20T00:33:25.892Z,29.70
2017-12-20T00:34:28.378Z,29.37
2017-12-20T00:35:30.854Z,28.15
2017-12-20T00:36:33.328Z,29.15
2017-12-20T00:37:35.793Z,30.98
2017-12-20T00:38:38.254Z,28.55
2017-12-20T00:39:40.747Z,30.48
2017-12-20T00:40:43.221Z,30.75
2017-12-20T00:41:45.697Z,32.30
2017-12-20T00:42:48.162Z,32.33
2017-12-20T00:43:50.635Z,31.12
2017-12-20T00:44:53.123Z,31.83
2017-12-20T00:45:55.608Z,32.50
2017-12-20T00:46:58.086Z,32.03
2017-12-20T00:48:00.561Z,33.75
2017-12-20T00:49:03.026Z,34.70
2017-12-20T00:50:05.515Z,32.78
2017-12-20T00:51:07.978Z,30.67
2017-12-20T00:52:10.455Z,31.65
2017-12-20T00:53:12.929Z,32.20
2017-12-20T00:54:15.390Z,31.87
2017-12-20T00:55:17.879Z,33.13
2017-12-20T00:56:20.387Z,32.92
2017-12-20T00:57:22.869Z,30.60
2017-12-20T00:58:25.335Z,31.52
2017-12-20T00:59:27.790Z,32.90
2017-12-20T01:00:30.275Z,31.08
2017-12-20T01:01:32.755Z,33.25
2017-12-20T01:02:35.218Z,32.42
2017-12-20T01:03:37.697Z,33.85
2017-12-20T01:04:40.172Z,32.88
2017-12-20T01:05:42.650Z,33.22
2017-12-20T01:06:45.132Z,33.88
2017-12-20T01:07:47.620Z,34.40
2017-12-20T01:08:50.101Z,33.55
2017-12-20T01:09:52.599Z,32.85
2017-12-20T01:10:55.146Z,34.30
2017-12-20T01:11:57.625Z,31.05
2017-12-20T01:13:00.083Z,32.10
2017-12-20T01:14:02.564Z,31.45
2017-12-20T01:15:05.022Z,31.58
2017-12-20T01:16:07.513Z,35.78
2017-12-20T01:17:10.009Z,32.03
2017-12-20T01:18:12.491Z,30.77
2017-12-20T01:19:14.976Z,31.65
2017-12-20T01:20:17.457Z,32.72
2017-12-20T01:21:19.954Z,29.42
2017-12-20T01:22:22.432Z,29.87
2017-12-20T01:23:24.903Z,31.25
2017-12-20T01:24:27.370Z,32.17
2017-12-20T01:25:29.830Z,30.65
2017-12-20T01:26:32.322Z,29.60
2017-12-20T01:27:34.808Z,29.33
2017-12-20T01:28:37.286Z,29.55
2017-12-20T01:29:39.771Z,30.85
2017-12-20T01:30:42.243Z,30.20
2017-12-20T01:31:44.841Z,31.12
2017-12-20T01:32:47.335Z,29.63
2017-12-20T01:33:49.813Z,27.50
2017-12-20T01:34:52.293Z,31.37
2017-12-20T01:35:54.775Z,28.67
2017-12-20T01:36:57.263Z,29.70
2017-12-20T01:37:59.726Z,26.73
2017-12-20T01:39:02.205Z,27.77
2017-12-20T01:40:04.689Z,27.33
2017-12-20T01:41:07.167Z,27.65
2017-12-20T01:42:09.666Z,28.52
2017-12-20T01:43:12.157Z,27.37
2017-12-20T01:44:14.669Z,27.55
2017-12-20T01:45:17.145Z,28.92
2017-12-20T01:46:19.606Z,27.98
2017-12-20T01:47:22.095Z,28.90
2017-12-20T01:48:24.554Z,29.63
2017-12-20T01:49:27.033Z,29.65
2017-12-20T01:50:29.514Z,30.30
2017-12-20T01:51:31.993Z,30.33
2017-12-20T01:52:34.493Z,33.40
2017-12-20T01:53:36.976Z,34.42
2017-12-20T01:54:39.452Z,33.92
2017-12-20T01:55:41.929Z,33.08
2017-12-20T01:56:44.408Z,31.23
2017-12-20T01:57:46.902Z,29.12
2017-12-20T01:58:49.397Z,30.02
2017-12-20T01:59:51.882Z,33.17
2017-12-20T02:00:54.347Z,32.20
2017-12-20T02:01:56.830Z,34.13
2017-12-20T02:02:59.314Z,33.20
2017-12-20T02:04:01.786Z,33.28
2017-12-20T02:05:04.269Z,33.42
2017-12-20T02:06:06.739Z,35.15
2017-12-20T02:07:09.202Z,34.35
2017-12-20T02:08:11.708Z,33.88
2017-12-20T02:09:14.176Z,35.65
2017-12-20T02:10:16.661Z,35.30
2017-12-20T02:11:19.127Z,33.78
2017-12-20T02:12:21.614Z,37.70
2017-12-20T02:13:24.116Z,37.75
2017-12-20T02:14:26.598Z,34.28
2017-12-20T02:15:29.066Z,36.15
2017-12-20T02:16:31.544Z,33.72
2017-12-20T02:17:34.028Z,33.70
2017-12-20T02:18:37.442Z,35.92
2017-12-20T02:19:39.916Z,32.90
2017-12-20T02:20:42.391Z,34.90
2017-12-20T02:21:44.855Z,34.85
2017-12-20T02:22:47.353Z,32.78
2017-12-20T02:23:49.846Z,34.22
2017-12-20T02:24:52.325Z,36.55
2017-12-20T02:25:54.791Z,33.90
2017-12-20T02:26:57.272Z,35.67
2017-12-20T02:27:59.756Z,36.55
2017-12-20T02:29:02.242Z,36.85
2017-12-20T02:30:04.721Z,35.28
2017-12-20T02:31:07.201Z,34.78
2017-12-20T02:32:09.681Z,34.92
2017-12-20T02:33:33.061Z,35.15
2017-12-20T02:34:35.530Z,34.03
2017-12-20T02:35:38.013Z,33.35
2017-12-20T02:36:40.493Z,35.75
2017-12-20T02:37:42.969Z,32.80
2017-12-20T02:38:45.442Z,33.90
2017-12-20T02:39:47.929Z,34.00
2017-12-20T02:40:50.399Z,32.70
2017-12-20T02:41:52.884Z,34.55
2017-12-20T02:42:55.361Z,32.63
2017-12-20T02:43:57.827Z,33.17
2017-12-20T02:45:00.295Z,33.90
2017-12-20T02:46:02.763Z,33.30
2017-12-20T02:47:05.287Z,35.50
2017-12-20T02:48:07.751Z,33.35
2017-12-20T02:49:10.224Z,32.03
2017-12-20T02:50:12.686Z,36.35
2017-12-20T02:51:15.160Z,35.80
2017-12-20T02:52:17.627Z,35.17
2017-12-20T02:53:20.117Z,33.42
2017-12-20T02:54:22.586Z,37.40
2017-12-20T02:55:25.051Z,37.80
2017-12-20T02:56:27.537Z,37.42
2017-12-20T02:57:30.002Z,38.47
2017-12-20T02:58:32.489Z,36.75
2017-12-20T02:59:34.972Z,36.60
2017-12-20T03:00:37.444Z,35.05
2017-12-20T03:01:39.906Z,37.60
2017-12-20T03:02:42.405Z,36.30
2017-12-20T03:03:44.873Z,34.05
2017-12-20T03:04:47.379Z,35.42
2017-12-20T03:05:49.861Z,38.08
2017-12-20T03:06:52.357Z,37.55
2017-12-20T03:07:54.836Z,36.20
2017-12-20T03:08:57.298Z,36.13
2017-12-20T03:09:59.781Z,37.08
2017-12-20T03:11:02.247Z,34.83
2017-12-20T03:12:04.706Z,39.75
2017-12-20T03:13:07.175Z,40.83
2017-12-20T03:14:09.661Z,39.75
2017-12-20T03:15:12.139Z,38.47
2017-12-20T03:16:14.598Z,40.12
2017-12-20T03:17:17.066Z,38.75
2017-12-20T03:18:19.549Z,36.40
2017-12-20T03:19:22.015Z,36.20
2017-12-20T03:20:24.492Z,36.08
2017-12-20T03:21:26.963Z,36.05
2017-12-20T03:22:29.422Z,36.65
2017-12-20T03:23:31.901Z,36.05
2017-12-20T03:24:34.365Z,36.55
2017-12-20T03:25:36.830Z,37.05
2017-12-20T03:26:39.309Z,34.90
2017-12-20T03:27:41.793Z,35.42
2017-12-20T03:28:44.254Z,35.22
2017-12-20T03:29:46.736Z,37.13
2017-12-20T03:30:49.229Z,35.00
2017-12-20T03:31:51.694Z,35.70
2017-12-20T03:32:54.188Z,33.67
2017-12-20T03:33:56.665Z,35.42
2017-12-20T03:34:59.127Z,37.50
2017-12-20T03:36:01.588Z,38.70
2017-12-20T03:37:04.060Z,36.40
2017-12-20T03:38:06.523Z,36.88
2017-12-20T03:39:09.004Z,36.50
2017-12-20T03:40:11.506Z,36.80
2017-12-20T03:41:13.989Z,36.15
2017-12-20T03:42:16.468Z,36.70
2017-12-20T03:43:18.930Z,35.78
2017-12-20T03:44:21.387Z,34.35
2017-12-20T03:45:23.856Z,34.40
2017-12-20T03:46:26.315Z,34.78
2017-12-20T03:47:28.789Z,34.97
2017-12-20T03:48:31.251Z,33.17
2017-12-20T03:49:33.710Z,34.03
2017-12-20T03:50:36.179Z,34.50
2017-12-20T03:51:38.660Z,34.60
2017-12-20T03:52:41.122Z,34.13
2017-12-20T03:53:43.587Z,34.95
2017-12-20T03:54:46.084Z,33.38
2017-12-20T03:55:48.546Z,34.65
2017-12-20T03:56:51.024Z,32.38
2017-12-20T03:57:53.761Z,34.40
2017-12-20T03:58:56.227Z,33.90
2017-12-20T03:59:58.697Z,31.62
2017-12-20T04:01:01.169Z,33.55
2017-12-20T04:02:03.649Z,33.60
2017-12-20T04:03:06.124Z,35.15
2017-12-20T04:04:08.583Z,34.85
2017-12-20T04:05:11.060Z,37.03
2017-12-20T04:06:13.546Z,33.70
2017-12-20T04:07:16.025Z,35.13
2017-12-20T04:08:18.486Z,34.75
2017-12-20T04:09:20.964Z,34.70
2017-12-20T04:10:23.444Z,34.50
2017-12-20T04:11:25.925Z,33.92
2017-12-20T04:12:28.401Z,35.80
2017-12-20T04:13:30.891Z,34.35
2017-12-20T04:14:33.392Z,35.55
2017-12-20T04:15:35.872Z,34.97
2017-12-20T04:16:38.352Z,36.05
2017-12-20T04:17:40.838Z,36.05
2017-12-20T04:18:43.316Z,33.70
2017-12-20T04:19:45.817Z,34.72
2017-12-20T04:20:48.333Z,34.38
2017-12-20T04:21:50.807Z,36.72
2017-12-20T04:22:53.290Z,34.13
2017-12-20T04:23:55.769Z,36.05
2017-12-20T04:24:58.248Z,34.33
2017-12-20T04:26:00.731Z,35.15
2017-12-20T04:27:03.198Z,34.53
2017-12-20T04:28:05.693Z,34.65
2017-12-20T04:29:08.159Z,35.15
2017-12-20T04:30:10.636Z,35.20
2017-12-20T04:31:13.113Z,36.35
2017-12-20T04:32:15.587Z,36.42
2017-12-20T04:33:18.067Z,38.92
2017-12-20T04:34:20.531Z,36.08
2017-12-20T04:35:23.013Z,35.33
2017-12-20T04:36:25.478Z,34.92
2017-12-20T04:37:27.952Z,34.95
2017-12-20T04:38:30.418Z,36.47
2017-12-20T04:39:32.904Z,36.92
2017-12-20T04:40:35.366Z,33.45
2017-12-20T04:41:37.841Z,35.58
2017-12-20T04:42:40.303Z,35.35
2017-12-20T04:43:42.785Z,37.47
2017-12-20T04:44:45.254Z,39.72
2017-12-20T04:45:47.796Z,37.17
2017-12-20T04:46:50.280Z,39.13
2017-12-20T04:47:52.766Z,40.78
2017-12-20T04:48:55.249Z,41.75
2017-12-20T04:49:57.728Z,42.62
2017-12-20T04:51:00.190Z,39.67
2017-12-20T04:52:02.668Z,40.85
2017-12-20T04:53:05.183Z,43.40
2017-12-20T04:54:07.650Z,40.55
2017-12-20T04:55:10.109Z,39.92
2017-12-20T04:56:12.598Z,45.65
2017-12-20T04:57:15.067Z,44.38
2017-12-20T04:58:17.548Z,44.85
2017-12-20T04:59:20.015Z,42.20
2017-12-20T05:00:22.484Z,45.12
2017-12-20T05:01:24.954Z,47.35
2017-12-20T05:02:27.437Z,46.10
2017-12-20T05:03:29.920Z,48.97
2017-12-20T05:04:32.390Z,46.85
2017-12-20T05:05:34.854Z,46.95
2017-12-20T05:06:37.333Z,46.20
2017-12-20T05:07:39.834Z,42.65
2017-12-20T05:08:42.312Z,44.60
2017-12-20T05:09:44.778Z,45.83
2017-12-20T05:10:47.243Z,42.28
2017-12-20T05:11:49.721Z,45.85
2017-12-20T05:12:52.206Z,45.65
2017-12-20T05:13:54.667Z,44.08
2017-12-20T05:14:57.130Z,43.85
2017-12-20T05:15:59.591Z,40.80
2017-12-20T05:17:02.069Z,42.62
2017-12-20T05:18:04.539Z,41.95
2017-12-20T05:19:07.057Z,39.42
2017-12-20T05:20:09.522Z,40.85
2017-12-20T05:21:11.996Z,39.80
2017-12-20T05:22:14.485Z,37.35
2017-12-20T05:23:16.942Z,38.88
2017-12-20T05:24:19.421Z,39.05
2017-12-20T05:25:21.886Z,40.63
2017-12-20T05:26:24.387Z,38.38
2017-12-20T05:27:26.850Z,38.03
2017-12-20T05:28:29.333Z,38.83
2017-12-20T05:29:31.813Z,39.80
2017-12-20T05:30:34.296Z,41.95
2017-12-20T05:31:36.762Z,40.50
2017-12-20T05:32:39.233Z,39.67
2017-12-20T05:33:41.703Z,37.90
2017-12-20T05:34:44.185Z,39.78
2017-12-20T05:35:46.677Z,37.70
2017-12-20T05:36:49.142Z,34.95
2017-12-20T05:37:51.606Z,38.00
2017-12-20T05:38:54.078Z,38.40
2017-12-20T05:39:56.560Z,42.85
2017-12-20T05:40:59.028Z,43.15
2017-12-20T05:42:01.509Z,46.50
2017-12-20T05:43:04.015Z,44.28
2017-12-20T05:44:06.511Z,45.88
2017-12-20T05:45:08.981Z,42.47
2017-12-20T05:46:11.473Z,41.30
2017-12-20T05:47:13.957Z,47.08
2017-12-20T05:48:16.423Z,42.75
2017-12-20T05:49:18.887Z,41.72
2017-12-20T05:50:21.346Z,46.80
2017-12-20T05:51:23.832Z,44.83
2017-12-20T05:52:26.314Z,45.65
2017-12-20T05:53:28.800Z,50.15
2017-12-20T05:54:31.323Z,47.67
2017-12-20T05:55:33.795Z,44.42
2017-12-20T05:56:36.282Z,46.55
2017-12-20T05:57:38.792Z,47.53
2017-12-20T05:58:41.258Z,48.60
2017-12-20T05:59:43.804Z,50.08
2017-12-20T06:00:46.274Z,45.00
2017-12-20T06:01:48.742Z,45.75
2017-12-20T06:02:51.261Z,46.40
2017-12-20T06:03:53.741Z,50.47
2017-12-20T06:04:56.256Z,50.20
2017-12-20T06:05:58.740Z,48.85
2017-12-20T06:07:01.226Z,50.95
2017-12-20T06:08:03.739Z,45.60
2017-12-20T06:09:06.230Z,45.92
2017-12-20T06:10:08.742Z,48.38
2017-12-20T06:11:11.229Z,48.10
2017-12-20T06:12:13.690Z,46.10
2017-12-20T06:13:16.176Z,51.25
2017-12-20T06:14:18.664Z,49.58
2017-12-20T06:15:21.168Z,56.88
2017-12-20T06:16:23.654Z,49.42
2017-12-20T06:17:26.149Z,46.63
2017-12-20T06:18:28.681Z,48.75
2017-12-20T06:19:31.195Z,48.55
2017-12-20T06:20:33.690Z,48.42
2017-12-20T06:21:36.161Z,56.33
2017-12-20T06:22:38.662Z,45.88
2017-12-20T06:23:41.240Z,49.47
2017-12-20T06:24:43.724Z,48.80
2017-12-20T06:25:46.202Z,49.17
2017-12-20T06:26:48.681Z,49.13
2017-12-20T06:27:51.168Z,50.45
2017-12-20T06:28:53.687Z,49.95
2017-12-20T06:29:56.179Z,50.55
2017-12-20T06:30:58.665Z,54.05
2017-12-20T06:32:01.149Z,50.67
2017-12-20T06:33:03.610Z,50.53
2017-12-20T06:34:06.088Z,48.97
2017-12-20T06:35:08.579Z,49.63
2017-12-20T06:36:11.069Z,52.10
2017-12-20T06:37:13.560Z,51.40
2017-12-20T06:38:16.019Z,51.37
2017-12-20T06:39:18.520Z,47.85
2017-12-20T06:40:21.039Z,46.30
2017-12-20T06:41:23.506Z,48.10
2017-12-20T06:42:25.994Z,51.37
2017-12-20T06:43:28.489Z,50.95
2017-12-20T06:44:30.988Z,60.40
2017-12-20T06:45:33.477Z,50.47
2017-12-20T06:46:35.950Z,47.05
2017-12-20T06:47:38.414Z,49.33
2017-12-20T06:48:40.882Z,52.42
2017-12-20T06:49:43.342Z,48.42
2017-12-20T06:50:45.926Z,50.67
2017-12-20T06:51:48.434Z,50.53
2017-12-20T06:52:50.899Z,50.75
2017-12-20T06:53:53.358Z,49.35
2017-12-20T06:54:55.847Z,52.40
2017-12-20T06:55:58.324Z,51.83
2017-12-20T06:57:00.790Z,53.13
2017-12-20T06:58:03.256Z,48.58
2017-12-20T06:59:05.740Z,46.15
2017-12-20T07:00:08.237Z,51.55
2017-12-20T07:01:10.770Z,48.83
2017-12-20T07:02:13.268Z,44.25
2017-12-20T07:03:15.774Z,46.22
2017-12-20T07:04:18.306Z,47.97
2017-12-20T07:05:20.750Z,45.72
2017-12-20T07:06:23.211Z,47.97
2017-12-20T07:07:25.718Z,46.70
2017-12-20T07:08:28.179Z,47.47
2017-12-20T07:09:30.647Z,47.10
2017-12-20T07:10:33.165Z,43.87
2017-12-20T07:11:35.647Z,46.85
2017-12-20T07:12:38.114Z,43.92
2017-12-20T07:13:40.589Z,47.05
2017-12-20T07:14:43.073Z,49.85
2017-12-20T07:15:45.576Z,48.92
2017-12-20T07:16:48.058Z,45.95
2017-12-20T07:17:50.539Z,47.13
2017-12-20T07:18:53.050Z,49.22
2017-12-20T07:19:55.546Z,50.42
2017-12-20T07:20:58.032Z,47.62
2017-12-20T07:22:00.533Z,46.70
2017-12-20T07:23:03.037Z,49.28
2017-12-20T07:24:05.516Z,50.35
2017-12-20T07:25:07.981Z,51.53
2017-12-20T07:26:10.460Z,50.78
2017-12-20T07:27:12.925Z,48.65
2017-12-20T07:28:15.392Z,48.17
2017-12-20T07:29:17.855Z,48.40
2017-12-20T07:30:20.395Z,45.78
2017-12-20T07:31:22.879Z,44.88
2017-12-20T07:32:25.357Z,47.90
2017-12-20T07:33:27.834Z,50.72
2017-12-20T07:34:30.310Z,49.63
2017-12-20T07:35:32.797Z,50.47
2017-12-20T07:36:35.295Z,46.05
2017-12-20T07:37:37.780Z,44.88
2017-12-20T07:38:40.366Z,49.42
2017-12-20T07:39:42.908Z,45.38
2017-12-20T07:40:45.363Z,43.80
2017-12-20T07:41:47.860Z,46.20
2017-12-20T07:42:50.339Z,46.10
2017-12-20T07:43:52.889Z,42.33
2017-12-20T07:44:55.346Z,41.97
2017-12-20T07:45:57.824Z,41.47
2017-12-20T07:47:00.312Z,40.90
2017-12-20T07:48:02.799Z,42.72
2017-12-20T07:49:05.263Z,41.60
2017-12-20T07:50:07.737Z,41.55
2017-12-20T07:51:10.217Z,40.92
2017-12-20T07:52:12.704Z,40.47
2017-12-20T07:53:15.188Z,45.53
2017-12-20T07:54:17.662Z,47.58
2017-12-20T07:55:20.148Z,45.40
2017-12-20T07:56:22.618Z,47.42
2017-12-20T07:57:25.094Z,47.33
2017-12-20T07:58:27.580Z,41.65
2017-12-20T07:59:30.047Z,43.55
2017-12-20T08:00:32.579Z,45.58
2017-12-20T08:01:35.042Z,47.10
2017-12-20T08:02:37.538Z,45.33
2017-12-20T08:03:40.067Z,45.63
2017-12-20T08:04:42.540Z,47.40
2017-12-20T08:05:45.015Z,49.22
2017-12-20T08:06:47.497Z,51.45
2017-12-20T08:07:49.979Z,46.95
2017-12-20T08:08:52.553Z,49.70
2017-12-20T08:09:55.033Z,49.15
2017-12-20T08:10:57.502Z,52.58
2017-12-20T08:11:59.970Z,47.83
2017-12-20T08:13:02.430Z,49.55
2017-12-20T08:14:04.912Z,44.90
2017-12-20T08:15:07.401Z,46.17
2017-12-20T08:16:09.867Z,49.00
2017-12-20T08:17:12.404Z,47.95
2017-12-20T08:18:14.876Z,48.40
2017-12-20T08:19:17.366Z,45.35
2017-12-20T08:20:19.844Z,46.67
2017-12-20T08:21:22.313Z,47.72
2017-12-20T08:22:24.828Z,48.83
2017-12-20T08:23:27.309Z,46.42
2017-12-20T08:24:29.782Z,49.92
2017-12-20T08:25:32.267Z,44.35
2017-12-20T08:26:34.749Z,42.25
2017-12-20T08:27:37.236Z,41.67
2017-12-20T08:28:39.748Z,46.65
2017-12-20T08:29:42.226Z,50.35
2017-12-20T08:30:44.695Z,45.90
2017-12-20T08:31:47.165Z,44.22
2017-12-20T08:32:49.644Z,43.58
2017-12-20T08:33:52.153Z,46.00
2017-12-20T08:34:54.620Z,45.10
2017-12-20T08:35:57.105Z,44.63
2017-12-20T08:36:59.579Z,46.30
2017-12-20T08:38:02.082Z,48.40
2017-12-20T08:39:04.592Z,43.22
2017-12-20T08:40:07.074Z,43.00
2017-12-20T08:41:09.547Z,46.80
2017-12-20T08:42:12.010Z,48.95
2017-12-20T08:43:14.482Z,45.58
2017-12-20T08:44:16.987Z,48.70
2017-12-20T08:45:19.478Z,47.05
2017-12-20T08:46:21.960Z,46.63
2017-12-20T08:47:24.419Z,46.17
2017-12-20T08:48:26.887Z,46.65
2017-12-20T08:49:29.415Z,47.22
2017-12-20T08:50:31.987Z,48.30
2017-12-20T08:51:34.462Z,46.70
2017-12-20T08:52:36.932Z,47.15
2017-12-20T08:53:39.440Z,49.78
2017-12-20T08:54:41.926Z,49.95
2017-12-20T08:55:44.488Z,51.40
2017-12-20T08:56:47.081Z,52.25
2017-12-20T08:57:49.547Z,48.70
2017-12-20T08:58:52.166Z,53.22
2017-12-20T08:59:54.743Z,54.55
2017-12-20T09:00:57.206Z,54.60
2017-12-20T09:01:59.666Z,52.65
2017-12-20T09:03:02.199Z,55.40
2017-12-20T09:04:04.744Z,57.67
2017-12-20T09:05:07.319Z,55.70
2017-12-20T09:06:09.782Z,51.13
2017-12-20T09:07:12.247Z,52.55
2017-12-20T09:08:14.804Z,51.92
2017-12-20T09:09:17.353Z,55.45
2017-12-20T09:10:19.895Z,53.53
2017-12-20T09:11:22.378Z,54.58
2017-12-20T09:12:24.901Z,51.63
2017-12-20T09:13:27.512Z,55.42
2017-12-20T09:14:29.973Z,53.75
2017-12-20T09:15:32.484Z,52.28
2017-12-20T09:16:34.960Z,52.72
2017-12-20T09:17:37.428Z,50.12
2017-12-20T09:18:40.016Z,50.30
2017-12-20T09:19:42.551Z,50.97
2017-12-20T09:20:45.029Z,55.88
2017-12-20T09:21:47.588Z,54.70
2017-12-20T09:22:50.059Z,50.03
2017-12-20T09:23:52.518Z,49.75
2017-12-20T09:24:55.014Z,52.13
2017-12-20T09:25:57.474Z,51.20
2017-12-20T09:26:59.970Z,53.00
2017-12-20T09:28:02.443Z,51.35
2017-12-20T09:29:04.921Z,47.55
2017-12-20T09:30:07.415Z,48.08
2017-12-20T09:31:09.891Z,46.85
2017-12-20T09:32:12.382Z,46.67
2017-12-20T09:33:14.868Z,50.50
2017-12-20T09:34:17.345Z,52.85
2017-12-20T09:35:19.818Z,55.65
2017-12-20T09:36:22.295Z,52.70
2017-12-20T09:37:24.758Z,49.83
2017-12-20T09:38:27.222Z,49.45
2017-12-20T09:39:29.693Z,48.08
2017-12-20T09:40:32.252Z,48.15
2017-12-20T09:41:34.725Z,47.55
2017-12-20T09:42:37.207Z,46.45
2017-12-20T09:43:39.681Z,45.53
2017-12-20T09:44:42.169Z,46.47
2017-12-20T09:45:44.644Z,46.85
2017-12-20T09:46:47.136Z,48.72
2017-12-20T09:47:49.620Z,50.78
2017-12-20T09:48:52.128Z,46.00
2017-12-20T09:49:54.596Z,46.00
2017-12-20T09:50:57.149Z,45.95
2017-12-20T09:51:59.591Z,47.90
2017-12-20T09:53:02.062Z,47.83
2017-12-20T09:54:04.543Z,46.90
2017-12-20T09:55:07.028Z,46.90
2017-12-20T09:56:09.495Z,45.30
2017-12-20T09:57:11.997Z,47.95
2017-12-20T09:58:14.459Z,46.75
2017-12-20T09:59:16.940Z,47.62
2017-12-20T10:00:19.403Z,43.53
2017-12-20T10:01:21.880Z,46.15
2017-12-20T10:02:24.425Z,45.42
2017-12-20T10:03:26.973Z,43.63
2017-12-20T10:04:29.460Z,41.50
2017-12-20T10:05:32.012Z,43.38
2017-12-20T10:06:34.490Z,42.62
2017-12-20T10:07:36.994Z,43.30
2017-12-20T10:08:39.548Z,46.10
2017-12-20T10:09:42.013Z,42.47
2017-12-20T10:10:44.613Z,42.50
2017-12-20T10:11:47.290Z,42.67
2017-12-20T10:12:49.786Z,45.25
2017-12-20T10:13:52.270Z,45.28
2017-12-20T10:14:54.746Z,44.72
2017-12-20T10:15:57.237Z,46.30
2017-12-20T10:16:59.707Z,47.65
2017-12-20T10:18:02.199Z,47.55
2017-12-20T10:19:04.659Z,48.75
2017-12-20T10:20:07.147Z,51.37
2017-12-20T10:21:09.625Z,46.28
2017-12-20T10:22:12.095Z,45.67
2017-12-20T10:23:14.596Z,46.37
2017-12-20T10:24:17.068Z,44.30
2017-12-20T10:25:19.549Z,45.17
2017-12-20T10:26:22.070Z,46.45
2017-12-20T10:27:24.530Z,47.55
2017-12-20T10:28:27.036Z,48.55
2017-12-20T10:29:29.516Z,46.03
2017-12-20T10:30:32.000Z,49.78
2017-12-20T10:31:34.478Z,48.08
2017-12-20T10:32:36.938Z,49.28
2017-12-20T10:33:39.440Z,49.70
2017-12-20T10:34:41.955Z,47.60
2017-12-20T10:35:44.432Z,48.87
2017-12-20T10:36:46.912Z,51.22
2017-12-20T10:37:49.370Z,49.30
2017-12-20T10:38:51.866Z,52.05
2017-12-20T10:39:55.162Z,52.33
2017-12-20T10:40:57.645Z,49.42
2017-12-20T10:42:00.124Z,53.42
2017-12-20T10:43:02.609Z,53.05
2017-12-20T10:44:05.089Z,52.40
2017-12-20T10:45:07.576Z,51.75
2017-12-20T10:46:10.034Z,53.50
2017-12-20T10:47:12.575Z,51.50
2017-12-20T10:48:15.038Z,48.92
2017-12-20T10:49:17.503Z,47.92
2017-12-20T10:50:19.978Z,50.55
2017-12-20T10:51:22.464Z,50.03
2017-12-20T10:52:24.950Z,52.08
2017-12-20T10:53:27.430Z,47.50
2017-12-20T10:54:29.896Z,48.63
2017-12-20T10:55:32.375Z,47.78
2017-12-20T10:56:34.834Z,49.78
2017-12-20T10:57:37.298Z,47.17
2017-12-20T10:58:39.770Z,48.10
2017-12-20T10:59:42.249Z,47.10
2017-12-20T11:00:44.729Z,45.58
2017-12-20T11:01:47.195Z,44.17
2017-12-20T11:02:49.748Z,47.60
2017-12-20T11:03:52.206Z,46.83
2017-12-20T11:04:54.669Z,48.97
2017-12-20T11:05:57.156Z,50.00
2017-12-20T11:06:59.632Z,54.67
2017-12-20T11:08:02.134Z,51.10
2017-12-20T11:09:04.621Z,50.88
2017-12-20T11:10:07.083Z,49.75
2017-12-20T11:11:09.547Z,51.72
2017-12-20T11:12:12.056Z,80.43
2017-12-20T11:13:14.535Z,50.17
2017-12-20T11:14:16.994Z,50.45
2017-12-20T11:15:19.454Z,52.65
2017-12-20T11:16:21.918Z,51.95
2017-12-20T11:17:24.378Z,49.90
2017-12-20T11:18:26.848Z,50.35
2017-12-20T11:19:29.319Z,50.53
2017-12-20T11:20:31.785Z,47.58
2017-12-20T11:21:34.290Z,49.90
2017-12-20T11:22:36.759Z,47.92
2017-12-20T11:23:39.236Z,51.80
2017-12-20T11:24:41.705Z,49.67
2017-12-20T11:25:44.225Z,47.95
2017-12-20T11:26:46.697Z,46.58
2017-12-20T11:27:49.155Z,49.63
2017-12-20T11:28:51.632Z,48.67
2017-12-20T11:29:54.113Z,48.25
2017-12-20T11:30:56.598Z,46.40
2017-12-20T11:31:59.077Z,48.47
2017-12-20T11:33:01.568Z,48.15
2017-12-20T11:34:04.088Z,49.22
2017-12-20T11:35:06.555Z,45.12
2017-12-20T11:36:09.043Z,47.25
2017-12-20T11:37:11.528Z,45.85
2017-12-20T11:38:14.012Z,47.90
2017-12-20T11:39:16.469Z,49.33
2017-12-20T11:40:18.930Z,47.62
2017-12-20T11:41:21.441Z,45.80
2017-12-20T11:42:23.911Z,45.97
2017-12-20T11:43:26.378Z,43.85
2017-12-20T11:44:28.859Z,45.63
2017-12-20T11:45:31.330Z,46.50
2017-12-20T11:46:33.815Z,47.15
2017-12-20T11:47:36.279Z,45.47
2017-12-20T11:48:38.762Z,44.33
2017-12-20T11:49:41.241Z,45.60
2017-12-20T11:50:43.723Z,52.33
2017-12-20T11:51:46.268Z,52.15
2017-12-20T11:52:48.725Z,47.25
2017-12-20T11:53:51.300Z,46.17
2017-12-20T11:54:53.788Z,45.83
2017-12-20T11:55:56.268Z,45.33
2017-12-20T11:56:58.769Z,48.05
2017-12-20T11:58:01.245Z,45.20
2017-12-20T11:59:03.711Z,46.75
2017-12-20T12:00:06.199Z,46.83
2017-12-20T12:01:08.689Z,44.92
2017-12-20T12:02:11.167Z,44.92
2017-12-20T12:03:13.634Z,44.45
2017-12-20T12:04:16.112Z,42.47
2017-12-20T12:05:18.571Z,40.55
2017-12-20T12:06:21.030Z,40.47
2017-12-20T12:07:23.514Z,39.60
2017-12-20T12:08:25.998Z,40.60
2017-12-20T12:09:28.471Z,40.97
2017-12-20T12:10:31.018Z,40.83
2017-12-20T12:11:33.493Z,41.70
2017-12-20T12:12:35.977Z,41.37
2017-12-20T12:13:38.461Z,43.58
2017-12-20T12:14:41.748Z,42.45
2017-12-20T12:15:44.224Z,42.90
2017-12-20T12:16:46.704Z,43.03
2017-12-20T12:17:49.218Z,43.75
2017-12-20T12:18:51.686Z,41.80
2017-12-20T12:19:54.158Z,42.03
2017-12-20T12:20:56.645Z,40.72
2017-12-20T12:21:59.114Z,39.35
2017-12-20T12:23:01.759Z,41.75
2017-12-20T12:24:04.244Z,39.22
2017-12-20T12:25:06.750Z,38.55
2017-12-20T12:26:09.418Z,42.17
2017-12-20T12:27:11.977Z,41.78
2017-12-20T12:28:14.524Z,41.47
2017-12-20T12:29:17.001Z,40.90
2017-12-20T12:30:19.458Z,39.17
2017-12-20T12:31:21.918Z,38.75
2017-12-20T12:32:24.387Z,37.92
2017-12-20T12:33:26.878Z,39.17
2017-12-20T12:34:29.360Z,38.40
2017-12-20T12:35:31.858Z,38.40
2017-12-20T12:36:34.337Z,38.28
2017-12-20T12:37:36.825Z,40.67
2017-12-20T12:38:39.311Z,40.50
2017-12-20T12:39:41.802Z,39.70
2017-12-20T12:40:44.286Z,40.92
2017-12-20T12:41:46.761Z,40.58
2017-12-20T12:42:49.238Z,42.08
2017-12-20T12:43:51.830Z,39.78
2017-12-20T12:44:54.305Z,41.17
2017-12-20T12:45:56.789Z,41.80
2017-12-20T12:46:59.264Z,40.58
2017-12-20T12:48:01.748Z,41.50
2017-12-20T12:49:04.276Z,41.28
2017-12-20T12:50:06.760Z,42.40
2017-12-20T12:51:09.236Z,44.08
2017-12-20T12:52:11.714Z,40.75
2017-12-20T12:53:14.197Z,38.65
2017-12-20T12:54:16.684Z,39.50
2017-12-20T12:55:19.162Z,39.20
2017-12-20T12:56:21.624Z,42.13
2017-12-20T12:57:24.092Z,40.05
2017-12-20T12:58:26.626Z,39.30
2017-12-20T12:59:29.115Z,39.20
2017-12-20T13:00:31.582Z,39.28
2017-12-20T13:01:34.068Z,38.70
2017-12-20T13:02:36.552Z,39.22
2017-12-20T13:03:39.041Z,39.00
2017-12-20T13:04:41.527Z,39.97
2017-12-20T13:05:44.006Z,40.33
2017-12-20T13:06:46.478Z,40.30
2017-12-20T13:07:48.951Z,40.12
2017-12-20T13:08:51.416Z,39.53
2017-12-20T13:09:53.895Z,40.75
2017-12-20T13:10:56.379Z,37.97
2017-12-20T13:11:58.847Z,37.50
2017-12-20T13:13:01.368Z,38.25
2017-12-20T13:14:03.925Z,40.10
2017-12-20T13:15:06.424Z,37.88
2017-12-20T13:16:08.894Z,39.10
2017-12-20T13:17:11.371Z,45.35
2017-12-20T13:18:13.856Z,40.80
2017-12-20T13:19:16.349Z,43.53
2017-12-20T13:20:18.834Z,40.08
2017-12-20T13:21:21.340Z,40.12
2017-12-20T13:22:23.840Z,38.20
2017-12-20T13:23:26.319Z,39.40
2017-12-20T13:24:28.808Z,40.12